Time;durP1;ratioP1;P1;durP2;ratioP2;P2;SDS_P1;SDS_P2;PMS_P1;PMS_P2;Temp;Humidity;BMP_temperature;BMP_pressure;BME280_temperature;BME280_humidity;BME280_pressure;Samples;Min_cycle;Max_cycle;Signal;HPM_P1;HPM_P2
2022/01/30 00:00:25;;;;;;;;;;;6.00;99.90;;;;;;5105138;28;20011;-59
2022/01/30 00:02:51;;;;;;;;;;;6.00;99.90;;;;;;5072911;28;19995;-59
2022/01/30 00:05:17;;;;;;;;;;;6.10;99.90;;;;;;5071533;28;19931;-58
2022/01/30 00:07:43;;;;;;;;;;;6.10;99.90;;;;;;5073068;28;19925;-58
2022/01/30 00:10:11;;;;;;;;;;;6.10;99.90;;;;;;5072593;28;20015;-57
2022/01/30 00:12:53;;;;;;;;;;;6.10;99.90;;;;;;5072709;28;20274;-58
2022/01/30 00:15:27;;;;;;;;;;;6.00;99.90;;;;;;5072540;28;20014;-58
2022/01/30 00:18:07;;;;;;;;;;;5.90;99.90;;;;;;5072672;28;20286;-59
2022/01/30 00:20:35;;;;;;;;;;;5.90;99.90;;;;;;5072790;28;19930;-59
2022/01/30 00:23:15;;;;;;;;;;;5.80;99.90;;;;;;5072593;28;20328;-59
2022/01/30 00:25:48;;;;;;;;;;;5.70;99.90;;;;;;5073623;28;19929;-58
2022/01/30 00:28:17;;;;;;;;;;;5.60;99.90;;;;;;5071976;28;20407;-56
2022/01/30 00:30:43;;;;;;;;;;;5.70;99.90;;;;;;5072603;28;19924;-58
2022/01/30 00:33:08;;;;;;;;;;;5.70;99.90;;;;;;5071866;28;19928;-58
2022/01/30 00:35:35;;;;;;;;;;;5.70;99.90;;;;;;5105137;28;19985;-59
2022/01/30 00:38:02;;;;;;;;;;;5.70;99.90;;;;;;5072317;28;19924;-58
2022/01/30 00:40:27;;;;;;;;;;;5.70;99.90;;;;;;5071768;28;19920;-59
2022/01/30 00:42:53;;;;;;;;;;;5.60;99.90;;;;;;5054317;28;20023;-57
2022/01/30 00:45:18;;;;;;;;;;;5.60;99.90;;;;;;5072031;28;19972;-56
2022/01/30 00:47:44;;;;;;;;;;;5.60;99.90;;;;;;5104564;28;19932;-59
2022/01/30 00:50:10;;;;;;;;;;;5.60;99.90;;;;;;5071532;28;20011;-56
2022/01/30 00:52:35;;;;;;;;;;;5.60;99.90;;;;;;5072099;28;19925;-58
2022/01/30 00:55:01;;;;;;;;;;;5.50;99.90;;;;;;5072231;28;20011;-59
2022/01/30 00:57:27;;;;;;;;;;;5.50;99.90;;;;;;5071546;28;19925;-59
2022/01/30 00:59:52;;;;;;;;;;;5.50;99.90;;;;;;5072099;28;19932;-58
2022/01/30 01:02:18;;;;;;;;;;;5.40;99.90;;;;;;5070415;28;20382;-57
2022/01/30 01:04:44;;;;;;;;;;;5.40;99.90;;;;;;5104518;28;20019;-57
2022/01/30 01:07:15;;;;;;;;;;;5.30;99.90;;;;;;5069748;28;19986;-61
2022/01/30 01:09:43;;;;;;;;;;;5.30;99.90;;;;;;5072100;28;19968;-58
2022/01/30 01:23:29;;;;;;;;;;;5.50;99.90;;;;;;5071472;28;19997;-59
2022/01/30 01:25:56;;;;;;;;;;;5.50;99.90;;;;;;5070596;28;20130;-58
2022/01/30 01:28:21;;;;;;;;;;;5.60;99.90;;;;;;5070311;28;19924;-59
2022/01/30 01:30:47;;;;;;;;;;;5.70;99.90;;;;;;5071509;28;19948;-58
2022/01/30 01:33:14;;;;;;;;;;;5.70;99.90;;;;;;5104158;28;19924;-63
2022/01/30 01:35:39;;;;;;;;;;;5.70;99.90;;;;;;5071621;28;19928;-59
2022/01/30 01:38:10;;;;;;;;;;;5.70;99.90;;;;;;5104339;28;19930;-57
2022/01/30 01:40:36;;;;;;;;;;;5.60;99.90;;;;;;5071086;28;19935;-59
2022/01/30 01:43:02;;;;;;;;;;;5.60;99.90;;;;;;5070529;28;19925;-58
2022/01/30 01:45:34;;;;;;;;;;;5.60;99.90;;;;;;5071312;28;20281;-58
2022/01/30 01:48:03;;;;;;;;;;;5.50;99.90;;;;;;5071698;28;20045;-59
2022/01/30 01:50:39;;;;;;;;;;;5.50;99.90;;;;;;5103568;28;19925;-57
2022/01/30 01:53:09;;;;;;;;;;;5.50;99.90;;;;;;5071496;28;20002;-59
2022/01/30 01:55:35;;;;;;;;;;;5.50;99.90;;;;;;5070986;28;19931;-59
2022/01/30 01:58:02;;;;;;;;;;;5.40;99.90;;;;;;5070455;28;19924;-59
2022/01/30 02:00:27;;;;;;;;;;;5.50;99.90;;;;;;5070808;28;19925;-59
2022/01/30 02:02:54;;;;;;;;;;;5.40;99.90;;;;;;5070621;28;19925;-57
2022/01/30 02:05:22;;;;;;;;;;;5.40;99.90;;;;;;5070169;28;20328;-61
2022/01/30 02:10:34;;;;;;;;;;;5.50;99.90;;;;;;5070476;28;20334;-57
2022/01/30 02:13:18;;;;;;;;;;;5.50;99.90;;;;;;5070148;28;20488;-59
2022/01/30 02:23:56;;;;;;;;;;;5.60;99.90;;;;;;5071446;28;19970;-59
2022/01/30 02:24:05;;;;;;;;;;;5.80;99.90;;;;;;5075037;28;19931;-59
2022/01/30 02:26:35;;;;;;;;;;;5.70;99.90;;;;;;5074731;28;20414;-55
2022/01/30 02:29:00;;;;;;;;;;;5.70;99.90;;;;;;5074675;28;19931;-57
2022/01/30 02:31:26;;;;;;;;;;;5.70;99.90;;;;;;5107373;28;19925;-59
2022/01/30 02:33:52;;;;;;;;;;;5.60;99.90;;;;;;5074862;28;19967;-59
2022/01/30 02:36:17;;;;;;;;;;;5.50;99.90;;;;;;5073578;28;19925;-59
2022/01/30 02:38:43;;;;;;;;;;;5.50;99.90;;;;;;5074501;28;20034;-59
2022/01/30 02:41:08;;;;;;;;;;;5.40;99.90;;;;;;5107159;28;19936;-57
2022/01/30 02:43:40;;;;;;;;;;;5.40;99.90;;;;;;5073069;28;19932;-57
2022/01/30 02:46:22;;;;;;;;;;;5.40;99.90;;;;;;5074795;28;20001;-58
2022/01/30 02:48:57;;;;;;;;;;;5.40;99.90;;;;;;5058445;28;19975;-57
2022/01/30 02:51:32;;;;;;;;;;;5.40;99.90;;;;;;5074281;28;19925;-61
2022/01/30 02:54:03;;;;;;;;;;;5.40;99.90;;;;;;5074576;28;19924;-59
2022/01/30 02:56:29;;;;;;;;;;;5.40;99.90;;;;;;5074085;28;19928;-57
2022/01/30 02:58:55;;;;;;;;;;;5.50;99.90;;;;;;5090083;28;19932;-57
2022/01/30 03:01:20;;;;;;;;;;;5.50;99.90;;;;;;5089776;28;19924;-59
2022/01/30 03:03:46;;;;;;;;;;;5.60;99.90;;;;;;5072750;28;20035;-59
2022/01/30 03:06:12;;;;;;;;;;;5.60;99.90;;;;;;5074394;28;20395;-57
2022/01/30 03:08:37;;;;;;;;;;;5.60;99.90;;;;;;5072707;28;19947;-59
2022/01/30 03:11:03;;;;;;;;;;;5.70;99.90;;;;;;5074173;28;19932;-60
2022/01/30 03:13:29;;;;;;;;;;;5.70;99.90;;;;;;5072467;28;19954;-61
2022/01/30 03:15:56;;;;;;;;;;;5.70;99.90;;;;;;5089932;28;19931;-57
2022/01/30 03:18:21;;;;;;;;;;;5.70;99.90;;;;;;5073914;28;19932;-59
2022/01/30 03:20:48;;;;;;;;;;;5.80;99.90;;;;;;5072253;28;20289;-57
2022/01/30 03:23:14;;;;;;;;;;;5.80;99.90;;;;;;5073938;28;19932;-59
2022/01/30 03:25:39;;;;;;;;;;;5.80;99.90;;;;;;5088987;28;19929;-59
2022/01/30 03:28:05;;;;;;;;;;;5.80;99.90;;;;;;5106715;28;19932;-59
2022/01/30 03:30:31;;;;;;;;;;;5.80;99.90;;;;;;5071266;28;19925;-63
2022/01/30 03:32:57;;;;;;;;;;;5.80;99.90;;;;;;5073266;28;20410;-58
2022/01/30 03:35:23;;;;;;;;;;;5.80;99.90;;;;;;5073753;28;19924;-57
2022/01/30 03:37:48;;;;;;;;;;;6.00;99.90;;;;;;5055409;28;19932;-58
2022/01/30 03:40:14;;;;;;;;;;;5.80;99.90;;;;;;5072444;28;19931;-63
2022/01/30 03:42:40;;;;;;;;;;;5.80;99.90;;;;;;5073085;28;20062;-58
2022/01/30 03:45:05;;;;;;;;;;;5.80;99.90;;;;;;5072519;28;20009;-59
2022/01/30 03:47:31;;;;;;;;;;;5.70;99.90;;;;;;5072049;28;19928;-62
2022/01/30 03:49:57;;;;;;;;;;;5.80;99.90;;;;;;5073091;28;19924;-60
2022/01/30 03:52:22;;;;;;;;;;;5.70;99.90;;;;;;5073269;28;19970;-57
2022/01/30 03:54:48;;;;;;;;;;;5.60;99.90;;;;;;5105556;28;20289;-60
2022/01/30 03:57:13;;;;;;;;;;;5.60;99.90;;;;;;5055705;28;19930;-59
2022/01/30 03:59:39;;;;;;;;;;;5.60;99.90;;;;;;5072553;28;19931;-59
2022/01/30 04:02:05;;;;;;;;;;;5.60;99.90;;;;;;5073007;28;19935;-59
2022/01/30 04:04:33;;;;;;;;;;;5.60;99.90;;;;;;5073130;28;19924;-58
2022/01/30 04:06:59;;;;;;;;;;;5.70;99.90;;;;;;5071774;28;19978;-57
2022/01/30 04:09:25;;;;;;;;;;;5.70;99.90;;;;;;5072070;28;19924;-59
2022/01/30 04:11:51;;;;;;;;;;;5.60;99.90;;;;;;5072307;28;19931;-55
2022/01/30 04:14:17;;;;;;;;;;;5.60;99.90;;;;;;5071596;28;20472;-59
2022/01/30 04:16:43;;;;;;;;;;;5.60;99.90;;;;;;5072410;28;19924;-59
2022/01/30 04:19:08;;;;;;;;;;;5.60;99.90;;;;;;5071671;28;19932;-59
2022/01/30 04:21:34;;;;;;;;;;;5.60;99.90;;;;;;5071257;28;20015;-58
2022/01/30 04:24:00;;;;;;;;;;;5.50;99.90;;;;;;5072359;28;19931;-56
2022/01/30 04:26:25;;;;;;;;;;;5.50;99.90;;;;;;5072362;28;19947;-57
2022/01/30 04:28:51;;;;;;;;;;;5.60;99.90;;;;;;5072113;28;19924;-57
2022/01/30 04:31:16;;;;;;;;;;;5.60;99.90;;;;;;5071377;28;19967;-59
2022/01/30 04:33:42;;;;;;;;;;;5.60;99.90;;;;;;5072026;28;19931;-58
2022/01/30 04:36:12;;;;;;;;;;;5.70;99.90;;;;;;5088457;28;20281;-57
2022/01/30 04:39:35;;;;;;;;;;;5.70;99.90;;;;;;5072286;28;19924;-62
2022/01/30 04:41:48;;;;;;;;;;;5.70;99.90;;;;;;5066409;28;19924;-58
2022/01/30 04:57:52;;;;;;;;;;;5.90;99.90;;;;;;5071801;28;19924;-58
2022/01/30 05:05:52;;;;;;;;;;;5.90;99.90;;;;;;5070633;28;20077;-58
2022/01/30 05:08:18;;;;;;;;;;;5.90;99.90;;;;;;5070940;28;19929;-59
2022/01/30 05:10:44;;;;;;;;;;;5.90;99.90;;;;;;5071503;28;19925;-59
2022/01/30 05:13:14;;;;;;;;;;;5.90;99.90;;;;;;5071954;28;20263;-59
2022/01/30 05:15:42;;;;;;;;;;;5.90;99.90;;;;;;5070816;28;19924;-58
2022/01/30 05:18:08;;;;;;;;;;;6.00;99.90;;;;;;5087289;28;19928;-58
2022/01/30 05:20:35;;;;;;;;;;;5.70;99.90;;;;;;5070684;28;19931;-58
2022/01/30 05:23:01;;;;;;;;;;;6.00;99.90;;;;;;5053914;28;19925;-59
2022/01/30 05:25:27;;;;;;;;;;;5.90;99.90;;;;;;5070723;28;19928;-59
2022/01/30 05:27:53;;;;;;;;;;;5.90;99.90;;;;;;5071555;28;19978;-58
2022/01/30 05:30:18;;;;;;;;;;;5.90;99.90;;;;;;5071844;28;19924;-58
2022/01/30 05:32:44;;;;;;;;;;;5.80;99.90;;;;;;5071334;28;20424;-61
2022/01/30 05:35:10;;;;;;;;;;;5.80;99.90;;;;;;5071670;28;19928;-59
2022/01/30 05:37:37;;;;;;;;;;;5.80;99.90;;;;;;5070783;28;19968;-58
2022/01/30 05:40:04;;;;;;;;;;;5.80;99.90;;;;;;5070376;28;19944;-58
2022/01/30 05:42:29;;;;;;;;;;;5.80;99.90;;;;;;5053781;28;19928;-58
2022/01/30 05:45:09;;;;;;;;;;;5.70;99.90;;;;;;5071147;28;19978;-59
2022/01/30 05:47:44;;;;;;;;;;;5.70;99.90;;;;;;5071377;28;19924;-58
2022/01/30 05:50:10;;;;;;;;;;;5.60;99.90;;;;;;5070101;28;19928;-59
2022/01/30 05:52:35;;;;;;;;;;;5.50;99.90;;;;;;5070959;28;20366;-59
2022/01/30 05:55:01;;;;;;;;;;;5.40;99.90;;;;;;5075056;28;19925;-58
2022/01/30 05:57:27;;;;;;;;;;;5.30;99.90;;;;;;5075475;28;19924;-58
2022/01/30 05:59:52;;;;;;;;;;;5.20;99.90;;;;;;5074900;28;19924;-57
2022/01/30 06:02:18;;;;;;;;;;;5.10;99.90;;;;;;5075153;28;20015;-58
2022/01/30 06:04:44;;;;;;;;;;;5.10;99.90;;;;;;5107733;28;19940;-59
2022/01/30 06:07:11;;;;;;;;;;;5.10;99.90;;;;;;5107452;28;19932;-59
2022/01/30 06:09:37;;;;;;;;;;;5.10;99.90;;;;;;5074997;28;19932;-58
2022/01/30 06:12:02;;;;;;;;;;;5.10;99.90;;;;;;5107402;28;19931;-57
2022/01/30 06:14:28;;;;;;;;;;;5.10;99.90;;;;;;5073812;28;20242;-57
2022/01/30 06:16:54;;;;;;;;;;;5.10;99.90;;;;;;5090628;28;19924;-59
2022/01/30 06:19:22;;;;;;;;;;;5.10;99.90;;;;;;5075120;28;20297;-58
2022/01/30 06:21:50;;;;;;;;;;;5.20;99.90;;;;;;5107698;28;19979;-58
2022/01/30 06:24:16;;;;;;;;;;;5.30;99.90;;;;;;5074940;28;19924;-58
2022/01/30 06:26:42;;;;;;;;;;;5.40;99.90;;;;;;5090338;28;19935;-60
2022/01/30 06:29:08;;;;;;;;;;;5.50;99.90;;;;;;5090100;28;19924;-59
2022/01/30 06:31:33;;;;;;;;;;;5.40;99.90;;;;;;5075026;28;19924;-59
2022/01/30 06:33:59;;;;;;;;;;;5.50;99.90;;;;;;5056504;28;19928;-59
2022/01/30 06:36:24;;;;;;;;;;;5.50;99.90;;;;;;5057088;28;20296;-57
2022/01/30 06:38:51;;;;;;;;;;;5.50;99.90;;;;;;5074696;28;19924;-59
2022/01/30 06:41:17;;;;;;;;;;;5.50;99.90;;;;;;5074477;28;20021;-59
2022/01/30 06:43:43;;;;;;;;;;;5.50;99.90;;;;;;5090670;28;19994;-59
2022/01/30 06:46:10;;;;;;;;;;;5.50;99.90;;;;;;5056718;28;20382;-56
2022/01/30 06:48:36;;;;;;;;;;;5.50;99.90;;;;;;5073559;28;19931;-59
2022/01/30 06:51:02;;;;;;;;;;;5.60;99.90;;;;;;5073197;28;20353;-59
2022/01/30 06:53:27;;;;;;;;;;;5.60;99.90;;;;;;5107213;28;20011;-58
2022/01/30 06:55:53;;;;;;;;;;;5.70;99.90;;;;;;5074564;28;20386;-59
2022/01/30 06:58:19;;;;;;;;;;;5.70;99.90;;;;;;5107139;28;19928;-60
2022/01/30 07:00:44;;;;;;;;;;;5.70;99.90;;;;;;5106616;28;19925;-59
2022/01/30 07:03:10;;;;;;;;;;;5.60;99.90;;;;;;5072870;28;19928;-57
2022/01/30 07:05:35;;;;;;;;;;;5.60;99.90;;;;;;5106107;28;20320;-58
2022/01/30 07:08:01;;;;;;;;;;;5.50;99.90;;;;;;5073870;28;20019;-56
2022/01/30 07:10:27;;;;;;;;;;;5.50;99.90;;;;;;5073871;28;20377;-59
2022/01/30 07:12:52;;;;;;;;;;;5.50;99.90;;;;;;5072626;28;19981;-60
2022/01/30 07:15:18;;;;;;;;;;;5.50;99.90;;;;;;5073699;28;19976;-59
2022/01/30 07:17:43;;;;;;;;;;;5.50;99.90;;;;;;5074047;28;19986;-57
2022/01/30 07:20:09;;;;;;;;;;;5.50;99.90;;;;;;5055620;28;20411;-59
2022/01/30 07:22:36;;;;;;;;;;;5.50;99.90;;;;;;5073716;28;19932;-59
2022/01/30 07:25:02;;;;;;;;;;;5.50;99.90;;;;;;5072391;28;20061;-61
2022/01/30 07:27:28;;;;;;;;;;;5.50;99.90;;;;;;5072738;28;19996;-59
2022/01/30 07:29:54;;;;;;;;;;;5.50;99.90;;;;;;5073591;28;20425;-59
2022/01/30 07:32:19;;;;;;;;;;;5.50;99.90;;;;;;5071940;28;20033;-59
2022/01/30 07:34:49;;;;;;;;;;;5.50;99.90;;;;;;5073469;28;19925;-60
2022/01/30 07:37:15;;;;;;;;;;;5.50;99.90;;;;;;5073089;28;19924;-58
2022/01/30 07:39:41;;;;;;;;;;;5.60;99.90;;;;;;5073562;28;19933;-58
2022/01/30 07:42:07;;;;;;;;;;;5.60;99.90;;;;;;5072698;28;19946;-60
2022/01/30 07:44:33;;;;;;;;;;;5.60;99.90;;;;;;5106167;28;20362;-59
2022/01/30 07:46:58;;;;;;;;;;;5.60;99.90;;;;;;5055510;28;19970;-60
2022/01/30 07:49:24;;;;;;;;;;;5.60;99.90;;;;;;5073010;28;20366;-58
2022/01/30 07:51:49;;;;;;;;;;;5.60;99.90;;;;;;5073291;28;20266;-57
2022/01/30 07:54:15;;;;;;;;;;;5.50;99.90;;;;;;5105323;28;20381;-55
2022/01/30 07:56:41;;;;;;;;;;;5.60;99.90;;;;;;5073321;28;19924;-58
2022/01/30 07:59:06;;;;;;;;;;;5.50;99.90;;;;;;5105791;28;20374;-57
2022/01/30 08:01:32;;;;;;;;;;;5.60;99.90;;;;;;5072838;28;20011;-58
2022/01/30 08:03:58;;;;;;;;;;;5.60;99.90;;;;;;5073024;28;19940;-55
2022/01/30 08:06:24;;;;;;;;;;;5.60;99.90;;;;;;5072428;28;19924;-58
2022/01/30 08:08:49;;;;;;;;;;;5.60;99.90;;;;;;5088638;28;19931;-58
2022/01/30 08:11:15;;;;;;;;;;;5.60;99.90;;;;;;5072422;28;19924;-57
2022/01/30 08:13:40;;;;;;;;;;;5.60;99.90;;;;;;5072780;28;20074;-58
2022/01/30 08:16:06;;;;;;;;;;;5.60;99.90;;;;;;5054455;28;19925;-61
2022/01/30 08:18:33;;;;;;;;;;;5.60;99.90;;;;;;5072687;28;20327;-56
2022/01/30 08:20:59;;;;;;;;;;;5.70;99.90;;;;;;5071444;28;19928;-59
2022/01/30 08:23:28;;;;;;;;;;;5.70;99.90;;;;;;5088156;28;19932;-57
2022/01/30 08:25:53;;;;;;;;;;;5.70;99.90;;;;;;5072594;28;19925;-58
2022/01/30 08:28:19;;;;;;;;;;;5.70;99.90;;;;;;5072355;28;19935;-59
2022/01/30 08:30:45;;;;;;;;;;;5.70;99.90;;;;;;5054765;28;20377;-57
2022/01/30 08:33:13;;;;;;;;;;;5.70;99.90;;;;;;5070834;28;20035;-58
2022/01/30 08:35:39;;;;;;;;;;;5.70;99.90;;;;;;5071320;28;19935;-57
2022/01/30 08:38:05;;;;;;;;;;;5.70;99.90;;;;;;5071870;28;20432;-57
2022/01/30 08:40:30;;;;;;;;;;;5.80;99.90;;;;;;5105065;28;20116;-59
2022/01/30 08:42:56;;;;;;;;;;;5.90;99.90;;;;;;5104579;28;20336;-58
2022/01/30 08:45:21;;;;;;;;;;;6.00;99.90;;;;;;5071965;28;19924;-59
2022/01/30 08:47:48;;;;;;;;;;;6.10;99.90;;;;;;5071132;28;20398;-59
2022/01/30 08:50:15;;;;;;;;;;;6.10;99.90;;;;;;5071633;28;20062;-59
2022/01/30 08:52:41;;;;;;;;;;;6.00;99.90;;;;;;5070982;28;20286;-59
2022/01/30 08:55:07;;;;;;;;;;;6.00;99.90;;;;;;5104811;28;20019;-59
2022/01/30 08:57:35;;;;;;;;;;;6.00;99.90;;;;;;5070947;28;20242;-59
2022/01/30 09:00:01;;;;;;;;;;;6.00;99.90;;;;;;5071210;28;20332;-59
2022/01/30 09:02:26;;;;;;;;;;;6.00;99.90;;;;;;5071552;28;20027;-58
2022/01/30 09:04:52;;;;;;;;;;;6.00;99.90;;;;;;5071799;28;19946;-58
2022/01/30 09:07:18;;;;;;;;;;;6.10;99.90;;;;;;5071298;28;19925;-58
2022/01/30 09:09:44;;;;;;;;;;;6.10;99.90;;;;;;5070716;28;19925;-60
2022/01/30 09:12:10;;;;;;;;;;;6.20;99.90;;;;;;5071689;28;19936;-59
2022/01/30 09:14:39;;;;;;;;;;;6.30;99.90;;;;;;5071107;28;19925;-59
2022/01/30 09:17:12;;;;;;;;;;;6.30;99.90;;;;;;5087951;28;19924;-59
2022/01/30 09:19:38;;;;;;;;;;;6.40;99.90;;;;;;5071293;28;19925;-59
2022/01/30 09:22:03;;;;;;;;;;;6.30;99.90;;;;;;5071270;28;19924;-59
2022/01/30 09:24:29;;;;;;;;;;;6.30;99.90;;;;;;5104109;28;20334;-58
2022/01/30 09:26:55;;;;;;;;;;;6.30;99.90;;;;;;5103486;28;19936;-56
2022/01/30 09:29:22;;;;;;;;;;;6.30;99.90;;;;;;5103508;28;20327;-55
2022/01/30 09:31:48;;;;;;;;;;;6.30;99.90;;;;;;5071525;28;20381;-58
2022/01/30 09:34:14;;;;;;;;;;;6.30;99.90;;;;;;5087275;28;20032;-58
2022/01/30 09:36:40;;;;;;;;;;;6.40;99.90;;;;;;5070414;28;20338;-58
2022/01/30 09:39:05;;;;;;;;;;;6.50;99.90;;;;;;5104163;28;19935;-59
2022/01/30 09:41:32;;;;;;;;;;;6.60;99.90;;;;;;5071187;28;19932;-59
2022/01/30 09:44:00;;;;;;;;;;;6.60;99.90;;;;;;5071592;28;19939;-59
2022/01/30 09:46:27;;;;;;;;;;;6.70;99.90;;;;;;5070033;28;19924;-60
2022/01/30 09:48:52;;;;;;;;;;;6.70;99.90;;;;;;5070220;28;19924;-58
2022/01/30 09:51:18;;;;;;;;;;;6.70;99.90;;;;;;5053470;28;19950;-61
2022/01/30 09:53:44;;;;;;;;;;;6.60;99.90;;;;;;5070974;28;19947;-60
2022/01/30 09:56:10;;;;;;;;;;;6.60;99.90;;;;;;5067413;28;19929;-58
2022/01/30 09:58:35;;;;;;;;;;;6.70;99.90;;;;;;5068472;28;19924;-58
2022/01/30 10:01:01;;;;;;;;;;;6.80;99.90;;;;;;5103357;28;20483;-58
2022/01/30 10:03:27;;;;;;;;;;;6.80;99.90;;;;;;5071016;28;19924;-58
2022/01/30 10:06:01;;;;;;;;;;;6.70;99.90;;;;;;5070954;28;19935;-59
2022/01/30 10:08:28;;;;;;;;;;;6.70;99.90;;;;;;5070276;28;20019;-59
2022/01/30 10:11:00;;;;;;;;;;;6.70;99.90;;;;;;5069628;28;19925;-56
2022/01/30 10:13:30;;;;;;;;;;;6.80;99.90;;;;;;5070543;28;20027;-59
2022/01/30 10:15:57;;;;;;;;;;;6.80;99.90;;;;;;5070893;28;20434;-58
2022/01/30 10:18:27;;;;;;;;;;;6.80;99.90;;;;;;5069911;28;19931;-61
2022/01/30 10:20:53;;;;;;;;;;;6.90;99.90;;;;;;5070924;28;19924;-58
2022/01/30 10:23:19;;;;;;;;;;;7.00;99.90;;;;;;5070370;28;19955;-59
2022/01/30 10:25:47;;;;;;;;;;;7.10;99.90;;;;;;5070607;28;19921;-56
2022/01/30 10:28:13;;;;;;;;;;;7.10;99.90;;;;;;5071258;28;20235;-58
2022/01/30 10:30:39;;;;;;;;;;;7.20;99.90;;;;;;5070467;28;20026;-56
2022/01/30 10:33:05;;;;;;;;;;;7.10;99.90;;;;;;5069907;28;19930;-58
2022/01/30 10:35:44;;;;;;;;;;;7.10;99.90;;;;;;5070555;28;20390;-58
2022/01/30 10:38:17;;;;;;;;;;;7.00;99.90;;;;;;5071215;28;19928;-58
2022/01/30 10:40:50;;;;;;;;;;;7.00;99.90;;;;;;5073980;28;19947;-58
2022/01/30 10:43:16;;;;;;;;;;;7.00;99.90;;;;;;5073591;28;19924;-58
2022/01/30 10:45:41;;;;;;;;;;;7.10;99.90;;;;;;5071903;28;19924;-58
2022/01/30 10:48:12;;;;;;;;;;;7.10;99.90;;;;;;5072864;28;19924;-58
2022/01/30 10:50:43;;;;;;;;;;;7.00;99.90;;;;;;5073658;28;20045;-56
2022/01/30 10:53:16;;;;;;;;;;;7.10;99.90;;;;;;5074318;28;19947;-58
2022/01/30 10:55:44;;;;;;;;;;;7.10;99.90;;;;;;5074183;28;19986;-59
2022/01/30 10:58:14;;;;;;;;;;;7.10;99.90;;;;;;5073908;28;19928;-58
2022/01/30 11:00:42;;;;;;;;;;;7.10;99.90;;;;;;5072126;28;19928;-55
2022/01/30 11:03:08;;;;;;;;;;;7.20;99.90;;;;;;5073405;28;19924;-59
2022/01/30 11:05:53;;;;;;;;;;;7.20;99.90;;;;;;5072715;28;20012;-58
2022/01/30 11:08:23;;;;;;;;;;;7.30;99.90;;;;;;5074272;28;19932;-59
2022/01/30 11:10:58;;;;;;;;;;;7.30;99.90;;;;;;5073230;28;19926;-61
2022/01/30 11:13:32;;;;;;;;;;;7.30;99.90;;;;;;5074018;28;19970;-58
2022/01/30 11:16:55;;;;;;;;;;;7.30;99.90;;;;;;5073431;28;19925;-60
2022/01/30 11:18:45;;;;;;;;;;;7.40;99.90;;;;;;5072701;28;20390;-59
2022/01/30 11:21:11;;;;;;;;;;;7.40;99.90;;;;;;5073816;28;19924;-58
2022/01/30 11:23:37;;;;;;;;;;;7.40;99.90;;;;;;5072143;28;20293;-58
2022/01/30 11:26:03;;;;;;;;;;;7.30;99.90;;;;;;5073771;28;19924;-59
2022/01/30 11:28:29;;;;;;;;;;;7.20;99.90;;;;;;5073863;28;20420;-61
2022/01/30 11:30:55;;;;;;;;;;;7.20;99.90;;;;;;5072373;28;19924;-60
2022/01/30 11:33:21;;;;;;;;;;;7.20;99.90;;;;;;5073867;28;20281;-59
2022/01/30 11:35:47;;;;;;;;;;;7.30;99.90;;;;;;5073344;28;19931;-59
2022/01/30 11:38:13;;;;;;;;;;;7.20;99.90;;;;;;5073403;28;19924;-59
2022/01/30 11:40:38;;;;;;;;;;;7.40;99.90;;;;;;5105939;28;19925;-59
2022/01/30 11:43:08;;;;;;;;;;;7.40;99.90;;;;;;5106007;28;19924;-59
2022/01/30 11:45:34;;;;;;;;;;;7.50;99.90;;;;;;5073059;28;19924;-62
2022/01/30 11:48:09;;;;;;;;;;;7.50;99.90;;;;;;5105554;28;19935;-59
2022/01/30 11:50:35;;;;;;;;;;;7.40;99.90;;;;;;5070910;28;19931;-60
2022/01/30 11:53:01;;;;;;;;;;;7.50;99.90;;;;;;5072815;28;19929;-60
2022/01/30 11:55:41;;;;;;;;;;;7.60;99.90;;;;;;5106175;28;19927;-58
2022/01/30 11:58:27;;;;;;;;;;;7.70;99.90;;;;;;5073372;28;19924;-58
2022/01/30 12:00:53;;;;;;;;;;;7.70;99.90;;;;;;5072627;28;20277;-58
2022/01/30 12:03:21;;;;;;;;;;;7.70;99.90;;;;;;5072206;28;19925;-58
2022/01/30 12:05:47;;;;;;;;;;;7.70;99.90;;;;;;5072913;28;20023;-58
2022/01/30 12:08:31;;;;;;;;;;;7.70;99.90;;;;;;5106084;28;19990;-58
2022/01/30 12:10:57;;;;;;;;;;;7.80;99.90;;;;;;5072619;28;19931;-58
2022/01/30 12:13:55;;;;;;;;;;;7.70;99.90;;;;;;5055249;28;19924;-58
2022/01/30 12:16:39;;;;;;;;;;;7.70;99.90;;;;;;5038621;28;19925;-58
2022/01/30 12:19:04;;;;;;;;;;;7.60;99.90;;;;;;5072646;28;20369;-59
2022/01/30 12:21:30;;;;;;;;;;;7.40;99.90;;;;;;5105812;28;19935;-60
2022/01/30 12:23:56;;;;;;;;;;;7.30;99.90;;;;;;5072353;28;20469;-59
2022/01/30 12:26:21;;;;;;;;;;;7.10;99.90;;;;;;5072846;28;19924;-58
2022/01/30 12:28:54;;;;;;;;;;;7.10;99.90;;;;;;5105094;28;20366;-59
2022/01/30 12:31:36;;;;;;;;;;;7.00;99.90;;;;;;5072941;28;20023;-58
2022/01/30 12:34:05;;;;;;;;;;;7.00;99.90;;;;;;5072217;28;19948;-59
2022/01/30 12:36:35;;;;;;;;;;;6.90;99.90;;;;;;5072562;28;19928;-59
2022/01/30 12:39:02;;;;;;;;;;;7.00;99.90;;;;;;5088158;28;19979;-58
2022/01/30 12:41:29;;;;;;;;;;;7.00;99.90;;;;;;5087886;28;20320;-59
2022/01/30 12:44:15;;;;;;;;;;;7.10;99.90;;;;;;5072069;28;19924;-58
2022/01/30 12:46:46;;;;;;;;;;;7.20;99.90;;;;;;5103791;28;19928;-59
2022/01/30 12:49:13;;;;;;;;;;;7.40;99.90;;;;;;5070957;28;20386;-59
2022/01/30 12:51:40;;;;;;;;;;;7.60;99.90;;;;;;5072440;28;19960;-58
2022/01/30 12:54:07;;;;;;;;;;;7.70;99.90;;;;;;5070859;28;20015;-58
2022/01/30 12:56:33;;;;;;;;;;;7.70;99.90;;;;;;5072235;28;19929;-59
2022/01/30 12:59:06;;;;;;;;;;;7.70;99.90;;;;;;5071447;28;19924;-59
2022/01/30 13:01:32;;;;;;;;;;;7.60;99.90;;;;;;5069885;28;19932;-59
2022/01/30 13:04:17;;;;;;;;;;;7.50;99.90;;;;;;5070296;28;20236;-59
2022/01/30 13:06:47;;;;;;;;;;;7.50;99.90;;;;;;5071340;28;19925;-59
2022/01/30 13:09:17;;;;;;;;;;;7.60;99.90;;;;;;5072049;28;20286;-59
2022/01/30 13:11:43;;;;;;;;;;;7.60;99.90;;;;;;5054055;28;19924;-60
2022/01/30 13:14:09;;;;;;;;;;;7.60;99.90;;;;;;5072005;28;20285;-60
2022/01/30 13:16:40;;;;;;;;;;;7.60;99.90;;;;;;5071020;28;19925;-59
2022/01/30 13:19:08;;;;;;;;;;;7.60;99.90;;;;;;5071529;28;19991;-57
2022/01/30 13:21:34;;;;;;;;;;;7.70;99.90;;;;;;5071356;28;19924;-61
2022/01/30 13:24:00;;;;;;;;;;;7.70;99.90;;;;;;5071262;28;19928;-59
2022/01/30 13:26:33;;;;;;;;;;;7.60;99.90;;;;;;5071681;28;19932;-59
2022/01/30 13:29:01;;;;;;;;;;;7.40;99.90;;;;;;5071298;28;19958;-59
2022/01/30 13:31:26;;;;;;;;;;;7.30;99.90;;;;;;5071425;28;19936;-59
2022/01/30 13:34:12;;;;;;;;;;;7.20;99.90;;;;;;5069687;28;19925;-59
2022/01/30 13:36:38;;;;;;;;;;;7.20;99.90;;;;;;5071198;28;20036;-58
2022/01/30 13:39:08;;;;;;;;;;;7.30;99.90;;;;;;5070717;28;19935;-59
2022/01/30 13:41:43;;;;;;;;;;;7.40;99.90;;;;;;5103806;28;20051;-59
2022/01/30 13:44:21;;;;;;;;;;;7.40;99.90;;;;;;5071545;28;19964;-58
2022/01/30 13:47:03;;;;;;;;;;;7.40;99.90;;;;;;5070415;28;19925;-62
2022/01/30 13:49:29;;;;;;;;;;;7.20;99.90;;;;;;5071173;28;19924;-60
2022/01/30 13:52:07;;;;;;;;;;;7.10;99.90;;;;;;5103998;28;19925;-58
2022/01/30 13:54:33;;;;;;;;;;;7.00;99.90;;;;;;5071573;28;20006;-58
2022/01/30 13:57:09;;;;;;;;;;;6.90;99.90;;;;;;5070818;28;19936;-59
2022/01/30 13:59:35;;;;;;;;;;;6.90;99.90;;;;;;5069655;28;20015;-59
2022/01/30 14:02:04;;;;;;;;;;;6.80;99.90;;;;;;5103128;28;20062;-59
2022/01/30 14:04:34;;;;;;;;;;;6.80;99.90;;;;;;5071464;28;19995;-59
2022/01/30 14:07:02;;;;;;;;;;;6.80;99.90;;;;;;5070913;28;19935;-59
2022/01/30 14:09:43;;;;;;;;;;;6.70;99.90;;;;;;5070326;28;20362;-59
2022/01/30 14:12:10;;;;;;;;;;;6.70;99.90;;;;;;5103185;28;19979;-59
2022/01/30 14:14:39;;;;;;;;;;;6.70;99.90;;;;;;5072254;28;20323;-58
2022/01/30 14:17:07;;;;;;;;;;;6.70;99.90;;;;;;5074544;28;20242;-59
2022/01/30 14:19:40;;;;;;;;;;;6.70;99.90;;;;;;5074118;28;19943;-59
2022/01/30 14:22:14;;;;;;;;;;;6.70;99.90;;;;;;5074873;28;19921;-59
2022/01/30 14:24:47;;;;;;;;;;;6.70;99.90;;;;;;5073454;28;19929;-60
2022/01/30 14:27:13;;;;;;;;;;;6.60;99.90;;;;;;5074633;28;20019;-58
2022/01/30 14:29:39;;;;;;;;;;;6.70;99.90;;;;;;5074434;28;20028;-60
2022/01/30 14:32:09;;;;;;;;;;;6.60;99.90;;;;;;5073277;28;19928;-60
2022/01/30 14:34:35;;;;;;;;;;;6.60;99.90;;;;;;5074622;28;20109;-59
2022/01/30 14:37:02;;;;;;;;;;;6.60;99.90;;;;;;5074570;28;20031;-59
2022/01/30 14:39:29;;;;;;;;;;;6.60;99.90;;;;;;5074697;28;19928;-59
2022/01/30 14:41:55;;;;;;;;;;;6.70;99.90;;;;;;5074289;28;19924;-58
2022/01/30 14:44:21;;;;;;;;;;;6.70;99.90;;;;;;5075104;28;20259;-59
2022/01/30 14:46:46;;;;;;;;;;;6.70;99.90;;;;;;5073417;28;19931;-59
2022/01/30 14:49:12;;;;;;;;;;;6.70;99.90;;;;;;5072533;28;19956;-59
2022/01/30 14:51:38;;;;;;;;;;;6.70;99.90;;;;;;5074340;28;19928;-58
2022/01/30 14:54:04;;;;;;;;;;;6.70;99.90;;;;;;5073470;28;20301;-61
2022/01/30 14:56:30;;;;;;;;;;;6.70;99.90;;;;;;5074694;28;19954;-59
2022/01/30 14:58:55;;;;;;;;;;;6.80;99.90;;;;;;5073938;28;20006;-60
2022/01/30 15:01:21;;;;;;;;;;;6.80;99.90;;;;;;5073871;28;19928;-60
2022/01/30 15:03:47;;;;;;;;;;;6.70;99.90;;;;;;5074222;28;20025;-61
2022/01/30 15:06:12;;;;;;;;;;;6.80;99.90;;;;;;5073659;28;19925;-60
2022/01/30 15:08:38;;;;;;;;;;;6.80;99.90;;;;;;5106762;28;19998;-61
2022/01/30 15:11:04;;;;;;;;;;;6.80;99.90;;;;;;5106537;28;19930;-60
2022/01/30 15:13:32;;;;;;;;;;;6.80;99.90;;;;;;5073848;28;19928;-61